createdAt,value
2023-03-13T00:55:30.880Z,25.00
2023-03-13T00:56:31.838Z,25.00
2023-03-13T00:57:31.821Z,25.00
2023-03-13T00:58:31.810Z,25.00
2023-03-13T00:59:31.809Z,25.00
2023-03-13T01:00:31.796Z,25.00
2023-03-13T01:01:31.800Z,0.00
2023-03-13T01:02:31.893Z,0.00
2023-03-13T01:03:31.821Z,0.00
2023-03-13T01:04:31.760Z,0.00
2023-03-13T01:05:31.752Z,0.00
2023-03-13T01:06:31.744Z,0.00
2023-03-13T01:07:31.738Z,3.11
2023-03-13T01:08:31.734Z,17.37
2023-03-13T01:09:31.723Z,25.00
2023-03-13T01:10:31.714Z,25.99
2023-03-13T01:11:31.724Z,25.07
2023-03-13T01:12:31.695Z,25.77
2023-03-13T01:13:31.694Z,26.64
2023-03-13T01:14:31.672Z,27.64
2023-03-13T01:15:31.717Z,26.19
2023-03-13T01:16:31.664Z,25.00
2023-03-13T01:17:31.661Z,27.51
2023-03-13T01:18:31.638Z,25.00
2023-03-13T01:19:31.627Z,25.00
2023-03-13T01:20:31.619Z,25.00
2023-03-13T01:21:31.621Z,25.58
2023-03-13T01:22:31.602Z,25.00
2023-03-13T01:23:31.623Z,25.69
2023-03-13T01:24:31.585Z,30.08
2023-03-13T01:25:31.579Z,25.60
2023-03-13T01:26:31.569Z,25.22
2023-03-13T01:27:31.584Z,25.34
2023-03-13T01:28:31.545Z,25.64
2023-03-13T01:29:31.536Z,25.00
2023-03-13T01:30:31.532Z,28.34
2023-03-13T01:31:31.729Z,28.16
2023-03-13T01:32:31.607Z,26.47
2023-03-13T01:33:31.500Z,27.10
2023-03-13T01:34:31.497Z,25.23
2023-03-13T01:35:31.543Z,27.35
2023-03-13T01:36:31.554Z,25.24
2023-03-13T01:37:31.465Z,27.27
2023-03-13T01:38:31.456Z,26.67
2023-03-13T01:39:31.447Z,28.29
2023-03-13T01:40:31.441Z,26.05
2023-03-13T01:41:31.440Z,25.68
2023-03-13T01:42:31.420Z,25.39
2023-03-13T01:43:31.441Z,26.94
2023-03-13T01:44:31.400Z,25.00
2023-03-13T01:45:31.397Z,25.78
2023-03-13T01:46:31.494Z,25.07
2023-03-13T01:47:31.375Z,25.28
2023-03-13T01:48:31.365Z,27.44
2023-03-13T01:49:31.359Z,25.97
2023-03-13T01:50:31.350Z,30.73
2023-03-13T01:51:31.343Z,26.67
2023-03-13T01:52:31.330Z,29.63
2023-03-13T01:53:31.340Z,25.00
2023-03-13T01:54:31.316Z,26.70
2023-03-13T01:55:31.307Z,26.36
2023-03-13T01:56:31.295Z,25.96
2023-03-13T01:57:31.285Z,25.10
2023-03-13T01:58:31.276Z,27.80
2023-03-13T01:59:31.288Z,27.76
2023-03-13T02:00:31.254Z,27.90
2023-03-13T02:01:31.288Z,27.34
2023-03-13T02:02:31.290Z,27.50
2023-03-13T02:03:31.228Z,29.01
2023-03-13T02:04:31.218Z,30.61
2023-03-13T02:05:31.251Z,26.94
2023-03-13T02:06:31.204Z,27.91
2023-03-13T02:07:31.207Z,30.16
2023-03-13T02:08:31.199Z,30.41
2023-03-13T02:09:31.186Z,28.10
2023-03-13T02:10:31.217Z,26.71
2023-03-13T02:11:31.166Z,28.62
2023-03-13T02:12:31.153Z,26.34
2023-03-13T02:13:31.140Z,27.00
2023-03-13T02:14:31.134Z,27.44
2023-03-13T02:15:31.145Z,27.09
2023-03-13T02:16:31.175Z,28.01
2023-03-13T02:17:31.108Z,28.74
2023-03-13T02:18:31.111Z,28.83
2023-03-13T02:19:31.076Z,27.20
2023-03-13T02:20:31.069Z,27.03
2023-03-13T02:21:31.070Z,27.55
2023-03-13T02:22:31.072Z,28.24
2023-03-13T02:23:31.041Z,28.46
2023-03-13T02:24:31.038Z,27.49
2023-03-13T02:25:31.025Z,28.28
2023-03-13T02:26:31.013Z,28.94
2023-03-13T02:27:31.005Z,27.82
2023-03-13T02:28:30.997Z,25.48
2023-03-13T02:29:30.990Z,25.46
2023-03-13T02:30:30.974Z,26.84
2023-03-13T02:31:31.098Z,26.99
2023-03-13T02:32:30.996Z,27.32
2023-03-13T02:33:30.946Z,27.61
2023-03-13T02:34:30.939Z,27.14
2023-03-13T02:35:31.082Z,28.01
2023-03-13T02:36:30.928Z,29.23
2023-03-13T02:37:30.936Z,25.65
2023-03-13T02:38:30.907Z,29.04
2023-03-13T02:39:30.889Z,28.34
2023-03-13T02:40:30.888Z,29.95
2023-03-13T02:41:30.873Z,28.63
2023-03-13T02:42:30.877Z,30.76
2023-03-13T02:43:30.893Z,28.33
2023-03-13T02:44:30.844Z,28.84
2023-03-13T02:45:30.839Z,29.53
2023-03-13T02:46:30.873Z,26.13
2023-03-13T02:47:30.850Z,27.86
2023-03-13T02:48:30.812Z,30.82
2023-03-13T02:49:30.803Z,28.36
2023-03-13T02:50:30.792Z,28.48
2023-03-13T02:51:30.788Z,26.79
2023-03-13T02:52:30.786Z,29.75
2023-03-13T02:53:30.774Z,27.84
2023-03-13T02:54:30.763Z,28.07
2023-03-13T02:55:30.749Z,29.35
2023-03-13T02:56:30.752Z,30.95
2023-03-13T02:57:30.746Z,29.71
2023-03-13T02:58:33.570Z,26.23
2023-03-13T02:59:30.712Z,26.58
2023-03-13T03:00:30.754Z,27.55
2023-03-13T03:01:30.696Z,28.42
2023-03-13T03:02:30.690Z,29.57
2023-03-13T03:03:30.719Z,27.62
2023-03-13T03:04:30.665Z,29.58
2023-03-13T03:05:30.660Z,26.14
2023-03-13T03:06:30.648Z,29.34
2023-03-13T03:07:30.644Z,27.10
2023-03-13T03:08:30.631Z,26.79
2023-03-13T03:09:30.633Z,29.32
2023-03-13T03:10:30.612Z,27.91
2023-03-13T03:11:30.611Z,26.77
2023-03-13T03:12:30.595Z,29.73
2023-03-13T03:13:30.594Z,28.19
2023-03-13T03:14:30.575Z,30.63
2023-03-13T03:15:30.568Z,29.72
2023-03-13T03:16:30.582Z,26.54
2023-03-13T03:17:30.554Z,30.62
2023-03-13T03:18:30.541Z,28.73
2023-03-13T03:19:30.555Z,28.27
2023-03-13T03:20:30.520Z,27.79
2023-03-13T03:21:30.510Z,27.81
2023-03-13T03:22:30.498Z,27.24
2023-03-13T03:23:30.506Z,27.91
2023-03-13T03:24:30.479Z,27.13
2023-03-13T03:25:30.474Z,31.03
2023-03-13T03:26:30.468Z,27.74
2023-03-13T03:27:30.453Z,31.25
2023-03-13T03:28:30.452Z,30.27
2023-03-13T03:29:30.432Z,31.25
2023-03-13T03:30:30.422Z,29.17
2023-03-13T03:31:30.460Z,31.05
2023-03-13T03:32:30.461Z,29.35
2023-03-13T03:33:30.394Z,29.43
2023-03-13T03:34:30.399Z,29.78
2023-03-13T03:35:30.446Z,28.68
2023-03-13T03:36:30.367Z,28.37
2023-03-13T03:37:30.364Z,29.82
2023-03-13T03:38:30.354Z,29.56
2023-03-13T03:39:30.354Z,28.94
2023-03-13T03:40:30.329Z,27.25
2023-03-13T03:41:30.318Z,30.72
2023-03-13T03:42:30.309Z,26.13
2023-03-13T03:43:30.446Z,31.02
2023-03-13T03:44:30.298Z,30.08
2023-03-13T03:45:30.325Z,26.88
2023-03-13T03:46:30.272Z,29.17
2023-03-13T03:47:30.375Z,31.01
2023-03-13T03:48:30.258Z,30.24
2023-03-13T03:49:30.256Z,28.40
2023-03-13T03:50:30.236Z,27.97
2023-03-13T03:51:30.248Z,26.67
2023-03-13T03:52:30.221Z,27.56
2023-03-13T03:53:30.215Z,28.82
2023-03-13T03:54:30.204Z,28.68
2023-03-13T03:55:30.215Z,28.02
2023-03-13T03:56:30.184Z,28.75
2023-03-13T03:57:30.177Z,28.15
2023-03-13T03:58:30.169Z,27.01
2023-03-13T03:59:30.157Z,26.63
2023-03-13T04:00:30.145Z,27.15
2023-03-13T04:01:30.138Z,27.59
2023-03-13T04:02:30.221Z,30.44
2023-03-13T04:03:30.263Z,27.76
2023-03-13T04:04:30.112Z,27.17
2023-03-13T04:05:30.121Z,25.62
2023-03-13T04:06:30.089Z,29.21
2023-03-13T04:07:30.113Z,28.20
2023-03-13T04:08:30.088Z,26.40
2023-03-13T04:09:32.022Z,27.06
2023-03-13T04:10:30.066Z,27.32
2023-03-13T04:11:30.048Z,27.94
2023-03-13T04:12:30.040Z,28.41
2023-03-13T04:13:30.028Z,28.41
2023-03-13T04:14:30.021Z,30.33
2023-03-13T04:15:30.008Z,28.80
2023-03-13T04:16:30.071Z,30.34
2023-03-13T04:17:29.996Z,28.26
2023-03-13T04:18:29.987Z,25.36
2023-03-13T04:19:29.977Z,29.80
2023-03-13T04:20:29.965Z,28.35
2023-03-13T04:21:30.912Z,25.91
2023-03-13T04:22:29.954Z,28.89
2023-03-13T04:23:29.962Z,26.60
2023-03-13T04:24:29.928Z,28.94
2023-03-13T04:25:29.918Z,26.53
2023-03-13T04:26:29.908Z,26.19
2023-03-13T04:27:29.900Z,27.39
2023-03-13T04:28:29.892Z,28.08
2023-03-13T04:29:29.888Z,28.17
2023-03-13T04:30:29.894Z,28.70
2023-03-13T04:31:29.862Z,26.53
2023-03-13T04:32:29.899Z,25.68
2023-03-13T04:33:29.845Z,30.16
2023-03-13T04:34:29.833Z,26.61
2023-03-13T04:35:29.866Z,25.40
2023-03-13T04:36:29.842Z,27.53
2023-03-13T04:37:29.810Z,28.16
2023-03-13T04:38:29.801Z,28.52
2023-03-13T04:39:31.971Z,26.26
2023-03-13T04:40:29.785Z,26.51
2023-03-13T04:41:29.774Z,27.05
2023-03-13T04:42:29.763Z,27.67
2023-03-13T04:43:29.764Z,27.72
2023-03-13T04:44:29.746Z,27.93
2023-03-13T04:45:29.735Z,29.63
2023-03-13T04:46:29.825Z,27.67
2023-03-13T04:47:29.724Z,26.02
2023-03-13T04:48:29.714Z,26.45
2023-03-13T04:49:29.700Z,27.35
2023-03-13T04:50:29.695Z,26.40
2023-03-13T04:51:29.680Z,27.22
2023-03-13T04:52:29.672Z,25.94
2023-03-13T04:53:29.664Z,29.03
2023-03-13T04:54:29.656Z,30.66
2023-03-13T04:55:29.665Z,28.44
2023-03-13T04:56:42.751Z,28.43
2023-03-13T05:16:29.453Z,28.58
2023-03-13T05:24:29.381Z,28.83
2023-03-13T05:40:29.240Z,29.93
2023-03-13T07:02:28.487Z,107.18
2023-03-13T07:03:28.668Z,107.76
2023-03-13T07:04:36.092Z,109.36
2023-03-13T07:05:28.548Z,107.43
2023-03-13T07:07:00.345Z,109.24
2023-03-13T07:07:35.878Z,107.53
2023-03-13T07:08:31.650Z,107.75
2023-03-13T07:09:31.660Z,107.88
2023-03-13T07:21:28.571Z,114.41
2023-03-13T07:44:28.148Z,101.91
2023-03-13T07:57:28.034Z,100.55
2023-03-13T07:58:28.014Z,101.62
2023-03-13T07:59:28.005Z,99.33
2023-03-13T08:00:28.066Z,101.93
2023-03-13T08:01:30.660Z,101.97
2023-03-13T08:03:29.085Z,102.59
2023-03-13T08:04:27.971Z,102.20
2023-03-13T08:05:28.122Z,102.32
2023-03-13T08:06:27.950Z,101.83
2023-03-13T08:07:28.054Z,100.23
2023-03-13T08:08:28.052Z,100.30
2023-03-13T08:09:27.902Z,96.63
2023-03-13T08:10:28.046Z,101.15
2023-03-13T08:11:27.909Z,99.92
2023-03-13T08:12:27.864Z,97.31
2023-03-13T08:13:27.849Z,97.77
2023-03-13T08:14:28.041Z,98.81
2023-03-13T08:15:28.067Z,97.02
2023-03-13T08:16:27.913Z,98.12
2023-03-13T08:17:27.818Z,96.89
2023-03-13T08:18:28.042Z,96.72
2023-03-13T08:19:27.804Z,97.54
2023-03-13T08:20:27.795Z,97.52
2023-03-13T08:21:27.784Z,95.80
2023-03-13T08:22:27.773Z,94.98
2023-03-13T08:23:28.068Z,97.11
2023-03-13T08:24:27.757Z,93.60
2023-03-13T08:25:27.740Z,94.46
2023-03-13T08:26:27.732Z,93.37
2023-03-13T08:27:27.725Z,91.93
2023-03-13T08:28:28.053Z,93.92
2023-03-13T08:29:27.711Z,92.79
2023-03-13T08:30:27.834Z,93.22
2023-03-13T08:31:28.047Z,91.24
2023-03-13T08:32:27.778Z,88.42
2023-03-13T08:33:27.677Z,93.82
2023-03-13T08:35:27.677Z,93.79
2023-03-13T08:36:28.040Z,92.95
2023-03-13T08:37:28.544Z,96.64
2023-03-13T08:38:28.048Z,96.60
2023-03-13T08:39:27.644Z,85.19
2023-03-13T08:40:27.636Z,79.28
2023-03-13T08:41:28.044Z,91.18
2023-03-13T08:42:27.589Z,95.35
2023-03-13T08:43:27.595Z,95.28
2023-03-13T08:44:28.069Z,101.79
2023-03-13T08:45:28.246Z,102.88
2023-03-13T08:46:28.129Z,106.34
2023-03-13T08:47:27.573Z,102.93
2023-03-13T08:48:27.546Z,105.25
2023-03-13T08:49:27.567Z,100.79
2023-03-13T08:50:27.579Z,89.66
2023-03-13T08:51:27.552Z,79.84
2023-03-13T08:52:27.521Z,85.55
2023-03-13T08:53:27.493Z,99.24
2023-03-13T08:54:27.495Z,107.70
2023-03-13T08:55:28.586Z,113.21
2023-03-13T08:56:27.621Z,115.24
2023-03-13T08:57:27.460Z,119.44
2023-03-13T08:58:27.454Z,116.35
2023-03-13T08:59:27.559Z,115.87
2023-03-13T09:00:27.437Z,115.76
2023-03-13T09:01:28.423Z,115.64
2023-03-13T09:02:27.454Z,117.11
2023-03-13T09:03:28.438Z,113.82
2023-03-13T09:04:27.604Z,111.82
2023-03-13T09:05:28.410Z,100.82
2023-03-13T09:06:27.381Z,85.27
2023-03-13T09:07:28.392Z,91.12
2023-03-13T09:08:27.395Z,90.70
2023-03-13T09:09:27.582Z,96.17
2023-03-13T09:10:27.376Z,95.98
2023-03-13T09:11:27.732Z,102.43
2023-03-13T09:12:31.269Z,102.79
2023-03-13T09:13:27.328Z,103.19
2023-03-13T09:14:27.592Z,103.68
2023-03-13T09:15:27.366Z,104.17
2023-03-13T09:16:27.313Z,106.12
2023-03-13T09:17:27.324Z,106.06
2023-03-13T09:18:27.368Z,112.04
2023-03-13T09:19:27.593Z,117.33
2023-03-13T09:20:27.283Z,120.60
2023-03-13T09:21:27.594Z,120.72
2023-03-13T09:22:27.258Z,118.70
2023-03-13T09:23:27.258Z,103.57
2023-03-13T09:24:27.243Z,97.12
2023-03-13T09:25:27.238Z,102.22
2023-03-13T09:26:27.921Z,108.68
2023-03-13T09:27:27.620Z,114.26
2023-03-13T09:28:27.210Z,118.63
2023-03-13T09:29:27.210Z,122.64
2023-03-13T09:30:27.196Z,123.00
2023-03-13T09:31:27.646Z,129.61
2023-03-13T09:32:27.645Z,128.67
2023-03-13T09:33:27.163Z,127.86
2023-03-13T09:34:27.145Z,131.76
2023-03-13T09:35:28.115Z,132.58
2023-03-13T09:36:27.189Z,132.10
2023-03-13T09:37:27.112Z,132.36
2023-03-13T09:38:27.122Z,132.76
2023-03-13T09:39:27.112Z,130.34
2023-03-13T09:40:27.107Z,134.39
2023-03-13T09:41:27.086Z,130.20
2023-03-13T09:42:27.102Z,130.31
2023-03-13T09:43:27.072Z,136.82
2023-03-13T09:44:27.073Z,141.39
2023-03-13T09:45:27.029Z,140.49
2023-03-13T09:46:27.118Z,139.07
2023-03-13T09:47:27.085Z,140.24
2023-03-13T09:48:26.999Z,140.44
2023-03-13T09:49:27.089Z,143.69
2023-03-13T09:50:26.986Z,147.13
2023-03-13T09:51:27.078Z,151.00
2023-03-13T09:52:27.091Z,151.12
2023-03-13T09:53:27.001Z,151.34
2023-03-13T09:54:26.948Z,144.58
2023-03-13T09:55:26.982Z,130.29
2023-03-13T09:56:26.923Z,119.22
2023-03-13T09:57:26.924Z,115.48
2023-03-13T09:58:26.922Z,112.80
2023-03-13T09:59:26.940Z,105.49
2023-03-13T10:00:26.925Z,101.95
2023-03-13T10:01:27.129Z,95.21
2023-03-13T10:02:26.869Z,92.64
2023-03-13T10:03:27.078Z,89.64
2023-03-13T10:04:26.918Z,87.28
2023-03-13T10:05:26.840Z,83.63
2023-03-13T10:06:27.079Z,76.04
2023-03-13T10:07:26.821Z,76.76
2023-03-13T10:08:27.080Z,72.37
2023-03-13T10:09:26.808Z,70.71
2023-03-13T10:10:26.794Z,65.58
2023-03-13T10:11:26.781Z,71.94
2023-03-13T10:12:27.837Z,63.80
2023-03-13T10:13:26.781Z,75.20
2023-03-13T10:14:26.758Z,80.94
2023-03-13T10:15:26.778Z,91.24
2023-03-13T10:16:26.793Z,93.52
2023-03-13T10:17:27.080Z,95.86
2023-03-13T10:18:26.724Z,97.31
2023-03-13T10:19:26.711Z,100.70
2023-03-13T10:20:26.702Z,102.16
2023-03-13T10:21:26.695Z,105.55
2023-03-13T10:22:27.087Z,107.44
2023-03-13T10:23:27.082Z,110.45
2023-03-13T10:24:26.678Z,116.45
2023-03-13T10:25:26.669Z,121.89
2023-03-13T10:26:27.087Z,127.42
2023-03-13T10:27:26.640Z,125.79
2023-03-13T10:28:26.648Z,128.16
2023-03-13T10:29:27.088Z,130.98
2023-03-13T10:30:26.635Z,131.02
2023-03-13T10:31:26.883Z,136.35
2023-03-13T10:32:26.620Z,141.70
2023-03-13T10:33:26.588Z,147.69
2023-03-13T10:34:26.612Z,138.29
2023-03-13T10:35:26.579Z,136.96
2023-03-13T10:36:26.561Z,139.89
2023-03-13T10:37:26.565Z,140.92
2023-03-13T10:39:26.546Z,141.23
2023-03-13T10:40:26.523Z,142.13
2023-03-13T10:41:27.552Z,145.52
2023-03-13T10:42:26.554Z,142.64
2023-03-13T10:43:26.615Z,150.03
2023-03-13T10:44:27.136Z,161.61
2023-03-13T10:45:26.492Z,202.06
2023-03-13T10:46:26.519Z,229.26
2023-03-13T10:47:26.624Z,242.30
2023-03-13T10:48:26.595Z,248.61
2023-03-13T10:49:26.447Z,242.12
2023-03-13T10:50:26.599Z,231.40
2023-03-13T10:51:26.431Z,219.98
2023-03-13T10:52:26.593Z,216.38
2023-03-13T10:53:26.410Z,211.93
2023-03-13T10:54:26.401Z,211.91
2023-03-13T10:55:26.410Z,208.33
2023-03-13T10:56:26.392Z,211.25
2023-03-13T10:57:26.371Z,217.09
2023-03-13T10:58:26.393Z,216.45
2023-03-13T10:59:26.353Z,217.56
2023-03-13T11:00:26.352Z,215.95
2023-03-13T11:01:26.517Z,219.44
2023-03-13T11:02:26.835Z,228.84
2023-03-13T11:03:26.695Z,217.63
2023-03-13T11:04:26.312Z,209.23
2023-03-13T11:05:26.360Z,209.26
2023-03-13T11:06:26.294Z,206.53
2023-03-13T11:07:26.300Z,203.88
2023-03-13T11:08:26.344Z,210.52
2023-03-13T11:09:26.286Z,213.35
2023-03-13T11:10:26.284Z,214.24
2023-03-13T11:12:26.239Z,209.68
2023-03-13T11:13:36.116Z,209.42
2023-03-13T11:14:26.240Z,209.67
2023-03-13T11:15:26.264Z,209.72
2023-03-13T11:16:26.313Z,205.69
2023-03-13T11:17:26.213Z,202.44
2023-03-13T11:18:26.640Z,208.08
2023-03-13T11:19:26.211Z,213.12
2023-03-13T11:20:26.171Z,211.81
2023-03-13T11:21:26.168Z,215.18
2023-03-13T11:22:26.214Z,215.95
2023-03-13T11:23:26.639Z,213.68
2023-03-13T11:24:26.142Z,207.93
2023-03-13T11:25:26.132Z,214.28
2023-03-13T11:26:26.112Z,213.26
2023-03-13T11:27:26.154Z,204.88
2023-03-13T11:28:26.164Z,203.00
2023-03-13T11:29:26.143Z,212.13
2023-03-13T11:30:26.195Z,216.77
2023-03-13T11:31:26.175Z,219.41
2023-03-13T11:32:26.146Z,217.54
2023-03-13T11:33:26.059Z,216.04
2023-03-13T11:34:26.099Z,212.09
2023-03-13T11:35:26.137Z,207.48
2023-03-13T11:36:26.022Z,201.58
2023-03-13T11:37:26.022Z,203.75
2023-03-13T11:38:26.006Z,203.92
2023-03-13T11:39:26.618Z,207.94
2023-03-13T11:40:26.141Z,211.38
2023-03-13T11:41:26.036Z,209.43
2023-03-13T11:42:25.977Z,209.63
2023-03-13T11:43:26.175Z,209.57
2023-03-13T11:44:25.958Z,203.98
2023-03-13T11:45:26.173Z,212.67
2023-03-13T11:46:26.095Z,209.69
2023-03-13T11:47:25.924Z,206.71
2023-03-13T11:48:25.924Z,210.25
2023-03-13T11:50:26.133Z,201.17
2023-03-13T11:51:25.972Z,202.42
2023-03-13T11:52:25.888Z,201.23
2023-03-13T11:53:25.983Z,200.73
2023-03-13T11:54:26.119Z,203.73
2023-03-13T11:55:25.860Z,202.23
2023-03-13T11:56:26.119Z,199.91
2023-03-13T11:57:25.839Z,198.44
2023-03-13T11:58:25.830Z,197.43
2023-03-13T11:59:25.827Z,198.09
2023-03-13T12:00:25.814Z,197.19
2023-03-13T12:01:26.130Z,202.62
2023-03-13T12:02:26.912Z,201.19
2023-03-13T12:03:25.843Z,199.94
2023-03-13T12:04:26.123Z,196.75
2023-03-13T12:05:25.836Z,198.11
2023-03-13T12:06:28.567Z,199.18
2023-03-13T12:07:25.795Z,199.41
2023-03-13T12:08:25.748Z,199.91
2023-03-13T12:09:28.172Z,200.25
2023-03-13T12:10:25.728Z,199.33
2023-03-13T12:11:25.717Z,199.65
2023-03-13T12:12:26.125Z,198.99
2023-03-13T12:13:25.707Z,199.96
2023-03-13T12:14:25.705Z,197.86
2023-03-13T12:15:25.684Z,195.21
2023-03-13T12:16:26.177Z,197.84
2023-03-13T12:17:25.763Z,196.15
2023-03-13T12:18:25.910Z,192.64
2023-03-13T12:19:25.657Z,190.93
2023-03-13T12:20:25.646Z,189.41
2023-03-13T12:21:26.243Z,184.90
2023-03-13T12:22:26.109Z,179.27
2023-03-13T12:23:26.313Z,164.41
2023-03-13T12:24:26.201Z,165.17
2023-03-13T12:25:26.203Z,160.36
2023-03-13T12:26:26.008Z,156.95
2023-03-13T12:33:28.646Z,25.00
2023-03-13T12:37:29.150Z,26.17
2023-03-13T12:41:29.171Z,45.67
2023-03-13T12:45:28.671Z,58.57
2023-03-13T12:49:28.649Z,88.57
2023-03-13T12:53:28.147Z,83.13
2023-03-13T12:57:28.208Z,74.97
2023-03-13T13:01:27.532Z,64.80
2023-03-13T13:05:27.676Z,66.43
2023-03-13T13:09:27.205Z,71.92
2023-03-13T13:13:26.678Z,96.04
2023-03-13T13:17:26.654Z,83.01
2023-03-13T13:21:26.154Z,67.86
2023-03-13T13:25:26.150Z,56.60
2023-03-13T13:29:25.786Z,49.26
2023-03-13T13:33:25.714Z,44.93
2023-03-13T13:37:25.158Z,43.65
2023-03-13T13:41:25.632Z,27.65
2023-03-13T13:45:24.684Z,27.54
2023-03-13T13:49:24.169Z,27.60
2023-03-13T13:53:24.161Z,32.80
2023-03-13T13:57:24.196Z,80.55
2023-03-13T14:01:23.722Z,90.12
2023-03-13T14:05:24.751Z,94.73
2023-03-13T14:09:23.670Z,96.97
2023-03-13T14:13:23.176Z,89.24
2023-03-13T14:17:23.198Z,88.37
2023-03-13T14:21:22.687Z,83.11
2023-03-13T14:25:22.684Z,81.81
2023-03-13T14:29:22.184Z,82.96
2023-03-13T14:33:21.730Z,75.86
2023-03-13T14:37:21.689Z,82.11
2023-03-13T14:41:21.188Z,88.40
2023-03-13T14:45:21.226Z,88.68
2023-03-13T14:49:20.831Z,83.63
2023-03-13T14:53:20.858Z,92.32
2023-03-13T14:57:20.238Z,80.98
2023-03-13T15:01:20.405Z,54.93
2023-03-13T15:05:19.774Z,60.58
2023-03-13T15:09:19.695Z,62.33
2023-03-13T15:13:19.866Z,46.32
2023-03-13T15:17:19.221Z,53.06
2023-03-13T15:21:18.695Z,68.42
2023-03-13T15:25:18.698Z,65.17
2023-03-13T15:29:18.213Z,76.56
2023-03-13T15:33:18.213Z,81.54
2023-03-13T15:37:17.595Z,62.22
2023-03-13T15:41:17.712Z,43.75
2023-03-13T15:45:17.226Z,36.39
2023-03-13T15:49:17.009Z,52.32
2023-03-13T15:53:20.514Z,53.01
2023-03-13T15:57:16.726Z,79.57
2023-03-13T16:01:16.345Z,101.38
2023-03-13T16:05:16.219Z,107.12
2023-03-13T16:09:15.728Z,99.09
2023-03-13T16:13:15.730Z,102.72
2023-03-13T16:17:15.722Z,103.30
2023-03-13T16:21:15.224Z,105.48
2023-03-13T16:25:15.405Z,107.73
2023-03-13T16:29:14.899Z,108.16
2023-03-13T16:33:14.782Z,113.38
2023-03-13T16:37:14.713Z,114.12
2023-03-13T16:41:15.444Z,114.34
2023-03-13T16:45:14.509Z,117.08
2023-03-13T16:49:14.438Z,117.45
2023-03-13T16:53:14.370Z,116.87
2023-03-13T16:57:14.323Z,118.78
2023-03-13T17:01:14.241Z,120.80
2023-03-13T17:05:14.182Z,117.26
2023-03-13T17:09:14.125Z,116.85
2023-03-13T17:13:14.091Z,116.56
2023-03-13T17:17:14.026Z,117.33
2023-03-13T17:21:14.000Z,115.60
2023-03-13T17:25:13.944Z,114.19
2023-03-13T17:29:13.931Z,112.51
2023-03-13T17:33:13.870Z,113.68
2023-03-13T17:37:13.819Z,112.12
2023-03-13T17:41:13.787Z,110.59
2023-03-13T17:45:13.799Z,110.68
2023-03-13T17:49:14.246Z,110.19
2023-03-13T17:53:13.734Z,107.62
2023-03-13T17:57:13.721Z,105.52
2023-03-13T18:01:13.741Z,104.74
2023-03-13T18:05:13.678Z,105.07
2023-03-13T18:09:13.649Z,102.97
2023-03-13T18:13:13.628Z,100.06
2023-03-13T18:17:13.647Z,102.29
2023-03-13T18:21:13.620Z,98.87
2023-03-13T18:25:13.362Z,98.19
2023-03-13T18:29:13.123Z,98.03
2023-03-13T18:33:12.896Z,94.68
2023-03-13T18:37:12.601Z,92.70
2023-03-13T18:41:12.344Z,94.07
2023-03-13T18:45:12.086Z,91.24
2023-03-13T18:49:12.004Z,93.00
2023-03-13T18:53:11.699Z,90.49
2023-03-13T18:57:11.450Z,89.60
2023-03-13T19:01:11.236Z,87.88
2023-03-13T19:05:10.968Z,87.28
2023-03-13T19:09:31.668Z,86.56
2023-03-13T19:13:10.471Z,86.95
2023-03-13T19:17:10.222Z,87.12
2023-03-13T19:21:10.002Z,83.35
2023-03-13T19:25:09.746Z,83.06
2023-03-13T19:29:09.498Z,82.42
2023-03-13T19:33:09.271Z,80.78
2023-03-13T19:37:09.104Z,80.69
2023-03-13T19:41:09.085Z,79.97
2023-03-13T19:45:09.085Z,78.54
2023-03-13T19:49:08.838Z,76.75
2023-03-13T19:53:08.619Z,76.19
2023-03-13T19:57:08.361Z,72.25
2023-03-13T20:01:17.272Z,73.26
2023-03-13T20:05:09.165Z,73.54
2023-03-13T20:09:07.675Z,73.66
2023-03-13T20:13:08.239Z,72.68
2023-03-13T20:17:07.138Z,72.25
2023-03-13T20:21:06.873Z,71.86
2023-03-13T20:25:06.891Z,70.18
2023-03-13T20:29:06.606Z,67.46
2023-03-13T20:33:06.404Z,66.61
2023-03-13T20:37:06.165Z,66.03
2023-03-13T20:41:05.931Z,64.68
2023-03-13T20:45:05.592Z,62.65
2023-03-13T20:49:05.353Z,64.74
2023-03-13T20:53:05.176Z,61.56
2023-03-13T20:57:04.967Z,60.50
2023-03-13T21:01:04.628Z,59.09
2023-03-13T21:05:04.368Z,58.73
2023-03-13T21:09:04.106Z,55.12
2023-03-13T21:13:03.900Z,54.54
2023-03-13T21:17:03.721Z,53.18
2023-03-13T21:21:03.585Z,51.00
2023-03-13T21:25:03.350Z,52.68
2023-03-13T21:29:03.132Z,51.23
2023-03-13T21:33:02.872Z,48.18
2023-03-13T21:37:02.638Z,46.30
2023-03-13T21:41:02.398Z,43.60
2023-03-13T21:45:02.324Z,44.01
2023-03-13T21:49:02.096Z,45.57
2023-03-13T21:53:01.864Z,44.64
2023-03-13T21:57:01.597Z,41.16
2023-03-13T22:01:01.475Z,40.74
2023-03-13T22:05:01.137Z,38.35
2023-03-13T22:09:00.911Z,36.46
2023-03-13T22:13:00.685Z,36.34
2023-03-13T22:17:00.644Z,34.30
2023-03-13T22:21:00.423Z,33.18
2023-03-13T22:25:00.170Z,33.17
2023-03-13T22:28:59.975Z,31.25
2023-03-13T22:32:59.975Z,27.76
2023-03-13T22:36:59.542Z,25.93
2023-03-13T22:40:59.309Z,25.88
2023-03-13T22:44:59.320Z,25.86
2023-03-13T22:48:59.126Z,26.47
2023-03-13T22:52:58.879Z,27.05
2023-03-13T22:56:58.663Z,26.52
2023-03-13T23:00:58.509Z,26.76
2023-03-13T23:04:58.241Z,27.69
2023-03-13T23:08:57.987Z,27.08
2023-03-13T23:12:58.012Z,26.03
2023-03-13T23:16:57.798Z,26.70
2023-03-13T23:20:57.609Z,28.53
2023-03-13T23:24:57.371Z,29.16
2023-03-13T23:28:57.147Z,28.14
2023-03-13T23:32:56.885Z,28.73
2023-03-13T23:36:56.624Z,28.39
2023-03-13T23:40:56.374Z,31.99
2023-03-13T23:44:56.353Z,30.60
2023-03-13T23:48:56.116Z,32.49
2023-03-13T23:52:55.912Z,33.80
2023-03-13T23:56:55.657Z,31.16
